createdAt,value
2022-11-24T00:01:07.003Z,6.55
2022-11-24T00:03:33.719Z,6.54
2022-11-24T00:06:07.864Z,6.56
2022-11-24T00:08:35.621Z,6.54
2022-11-24T00:11:11.363Z,6.52
2022-11-24T00:13:41.071Z,6.53
2022-11-24T00:16:24.714Z,6.54
2022-11-24T00:18:53.015Z,6.57
2022-11-24T00:21:20.526Z,6.54
2022-11-24T00:23:48.176Z,6.54
2022-11-24T00:26:15.887Z,6.53
2022-11-24T00:28:43.668Z,6.52
2022-11-24T00:31:27.816Z,6.53
2022-11-24T00:33:57.123Z,6.51
2022-11-24T00:36:25.830Z,6.52
2022-11-24T00:38:58.240Z,6.51
2022-11-24T00:41:26.556Z,6.48
2022-11-24T00:43:54.087Z,6.48
2022-11-24T00:46:21.309Z,6.49
2022-11-24T00:48:48.222Z,6.49
2022-11-24T00:51:16.873Z,6.49
2022-11-24T00:53:44.324Z,6.49
2022-11-24T00:56:12.045Z,6.52
2022-11-24T00:58:39.291Z,6.51
2022-11-24T01:01:07.413Z,6.52
2022-11-24T01:03:34.189Z,6.52
2022-11-24T01:06:09.362Z,6.50
2022-11-24T01:08:37.781Z,6.47
2022-11-24T01:11:24.795Z,6.50
2022-11-24T01:14:00.141Z,6.47
2022-11-24T01:16:31.504Z,6.44
2022-11-24T01:18:58.385Z,6.44
2022-11-24T01:21:25.059Z,6.43
2022-11-24T01:23:51.609Z,6.39
2022-11-24T01:26:21.905Z,6.39
2022-11-24T01:28:53.753Z,6.36
2022-11-24T01:31:20.328Z,6.36
2022-11-24T01:33:46.845Z,6.34
2022-11-24T01:36:13.562Z,6.34
2022-11-24T01:38:40.124Z,6.32
2022-11-24T01:41:15.000Z,6.31
2022-11-24T01:43:43.321Z,6.30
2022-11-24T01:46:46.580Z,6.27
2022-11-24T01:49:19.058Z,6.27
2022-11-24T01:51:57.859Z,6.24
2022-11-24T01:54:29.803Z,6.23
2022-11-24T01:57:02.903Z,6.23
2022-11-24T01:59:29.513Z,6.20
2022-11-24T02:01:56.996Z,6.19
2022-11-24T02:04:29.491Z,6.14
2022-11-24T02:06:59.189Z,6.14
2022-11-24T02:09:32.413Z,6.11
2022-11-24T02:12:00.991Z,6.13
2022-11-24T02:14:28.027Z,6.10
2022-11-24T02:16:54.536Z,6.08
2022-11-24T02:19:31.146Z,6.08
2022-11-24T02:21:57.742Z,6.05
2022-11-24T02:24:52.132Z,6.05
2022-11-24T02:27:20.071Z,6.04
2022-11-24T02:29:48.022Z,6.04
2022-11-24T02:32:16.017Z,6.02
2022-11-24T02:34:42.552Z,6.00
2022-11-24T02:37:09.075Z,5.98
2022-11-24T02:39:35.636Z,5.97
2022-11-24T02:42:07.395Z,5.96
2022-11-24T02:44:42.201Z,5.97
2022-11-24T02:47:12.024Z,5.92
2022-11-24T02:49:39.071Z,5.95
2022-11-24T02:52:05.947Z,5.93
2022-11-24T02:54:32.932Z,5.91
2022-11-24T02:56:59.865Z,5.91
2022-11-24T02:59:26.417Z,5.90
2022-11-24T03:01:52.964Z,5.86
2022-11-24T03:04:19.534Z,5.88
2022-11-24T03:06:46.040Z,5.85
2022-11-24T03:09:12.583Z,5.85
2022-11-24T03:11:39.328Z,5.85
2022-11-24T03:14:06.471Z,5.85
2022-11-24T03:16:33.897Z,5.81
2022-11-24T03:19:01.044Z,5.81
2022-11-24T03:21:27.628Z,5.79
2022-11-24T03:23:54.536Z,5.77
2022-11-24T03:26:22.849Z,5.73
2022-11-24T03:28:49.489Z,5.78
2022-11-24T03:31:16.482Z,5.77
2022-11-24T03:33:43.059Z,5.74
2022-11-24T03:36:09.821Z,5.72
2022-11-24T03:38:36.409Z,5.72
2022-11-24T03:41:02.955Z,5.70
2022-11-24T03:43:29.462Z,5.69
2022-11-24T03:45:56.631Z,5.70
2022-11-24T03:48:23.342Z,5.69
2022-11-24T03:50:57.767Z,5.66
2022-11-24T03:53:26.789Z,5.66
2022-11-24T03:55:53.761Z,5.66
2022-11-24T03:58:20.598Z,5.66
2022-11-24T04:00:52.282Z,5.65
2022-11-24T04:03:19.361Z,5.65
2022-11-24T04:05:46.577Z,5.63
2022-11-24T04:08:13.120Z,5.63
2022-11-24T04:10:40.375Z,5.62
2022-11-24T04:13:17.518Z,5.62
2022-11-24T04:15:44.838Z,5.60
2022-11-24T04:18:12.457Z,5.60
2022-11-24T04:20:40.108Z,5.59
2022-11-24T04:23:07.279Z,5.57
2022-11-24T04:25:34.014Z,5.55
2022-11-24T04:28:00.789Z,5.54
2022-11-24T04:30:28.718Z,5.53
2022-11-24T04:32:55.677Z,5.54
2022-11-24T04:35:22.181Z,5.49
2022-11-24T04:37:48.677Z,5.50
2022-11-24T04:40:15.836Z,5.48
2022-11-24T04:42:42.385Z,5.48
2022-11-24T04:45:09.297Z,5.47
2022-11-24T04:47:35.821Z,5.46
2022-11-24T04:50:02.432Z,5.46
2022-11-24T04:52:30.292Z,5.43
2022-11-24T04:54:56.824Z,5.46
2022-11-24T04:57:25.980Z,5.41
2022-11-24T04:59:53.208Z,5.41
2022-11-24T05:02:20.804Z,5.41
2022-11-24T05:04:47.428Z,5.39
2022-11-24T05:07:18.387Z,5.39
2022-11-24T05:10:05.153Z,5.41
2022-11-24T05:12:31.712Z,5.38
2022-11-24T05:15:02.559Z,5.40
2022-11-24T05:17:31.509Z,5.38
2022-11-24T05:19:58.787Z,5.37
2022-11-24T05:22:26.968Z,5.38
2022-11-24T05:24:53.552Z,5.37
2022-11-24T05:27:20.243Z,5.37
2022-11-24T05:29:46.716Z,5.36
2022-11-24T05:32:13.387Z,5.32
2022-11-24T05:34:39.930Z,5.33
2022-11-24T05:37:06.984Z,5.30
2022-11-24T05:39:35.015Z,5.31
2022-11-24T05:42:22.666Z,5.30
2022-11-24T05:44:49.284Z,5.30
2022-11-24T05:47:15.789Z,5.29
2022-11-24T05:49:42.535Z,5.26
2022-11-24T05:52:09.367Z,5.28
2022-11-24T05:54:36.064Z,5.26
2022-11-24T05:57:02.953Z,5.25
2022-11-24T05:59:29.573Z,5.26
2022-11-24T06:01:56.190Z,5.26
2022-11-24T06:04:22.781Z,5.26
2022-11-24T06:06:49.298Z,5.28
2022-11-24T06:09:15.769Z,5.28
2022-11-24T06:11:42.391Z,5.28
2022-11-24T06:14:11.522Z,5.27
2022-11-24T06:16:38.563Z,5.25
2022-11-24T06:19:05.190Z,5.27
2022-11-24T06:21:31.895Z,5.27
2022-11-24T06:23:58.641Z,5.28
2022-11-24T06:26:25.218Z,5.28
2022-11-24T06:28:51.772Z,5.28
2022-11-24T06:31:18.668Z,5.31
2022-11-24T06:33:45.466Z,5.29
2022-11-24T06:36:14.030Z,5.31
2022-11-24T06:38:40.624Z,5.31
2022-11-24T06:41:13.235Z,5.30
2022-11-24T06:43:39.992Z,5.30
2022-11-24T06:46:07.257Z,5.32
2022-11-24T06:48:34.299Z,5.31
2022-11-24T06:51:02.434Z,5.33
2022-11-24T06:53:33.700Z,5.32
2022-11-24T06:56:02.001Z,5.32
2022-11-24T06:58:28.516Z,5.31
2022-11-24T07:00:55.095Z,5.33
2022-11-24T07:03:21.852Z,5.32
2022-11-24T07:05:48.773Z,5.34
2022-11-24T07:08:17.953Z,5.34
2022-11-24T07:10:45.515Z,5.33
2022-11-24T07:13:12.002Z,5.34
2022-11-24T07:15:38.499Z,5.34
2022-11-24T07:18:05.132Z,5.35
2022-11-24T07:20:31.802Z,5.36
2022-11-24T07:22:59.099Z,5.38
2022-11-24T07:25:26.237Z,5.38
2022-11-24T07:28:00.047Z,5.41
2022-11-24T07:30:28.297Z,5.41
2022-11-24T07:33:02.835Z,5.42
2022-11-24T07:35:30.424Z,5.43
2022-11-24T07:37:58.271Z,5.42
2022-11-24T07:40:26.669Z,5.40
2022-11-24T07:42:54.128Z,5.42
2022-11-24T07:45:21.383Z,5.43
2022-11-24T07:47:47.863Z,5.40
2022-11-24T07:50:14.741Z,5.40
2022-11-24T07:52:41.235Z,5.41
2022-11-24T07:55:08.260Z,5.41
2022-11-24T07:57:35.320Z,5.44
2022-11-24T08:00:02.305Z,5.44
2022-11-24T08:02:28.820Z,5.46
2022-11-24T08:04:55.386Z,5.47
2022-11-24T08:07:22.053Z,5.48
2022-11-24T08:09:50.391Z,5.50
2022-11-24T08:12:21.481Z,5.52
2022-11-24T08:14:50.498Z,5.51
2022-11-24T08:17:18.135Z,5.54
2022-11-24T08:19:45.041Z,5.54
2022-11-24T08:22:11.781Z,5.59
2022-11-24T08:24:38.490Z,5.59
2022-11-24T08:27:05.220Z,5.61
2022-11-24T08:29:32.013Z,5.62
2022-11-24T08:31:58.647Z,5.63
2022-11-24T08:34:27.229Z,5.65
2022-11-24T08:36:53.775Z,5.66
2022-11-24T08:39:20.515Z,5.69
2022-11-24T08:41:47.125Z,5.74
2022-11-24T08:44:15.938Z,5.77
2022-11-24T08:46:42.497Z,5.80
2022-11-24T08:49:09.850Z,5.83
2022-11-24T08:51:36.590Z,5.87
2022-11-24T08:54:03.387Z,5.89
2022-11-24T08:56:32.329Z,5.94
2022-11-24T08:58:59.926Z,5.97
2022-11-24T09:01:27.362Z,5.98
2022-11-24T09:03:54.363Z,6.03
2022-11-24T09:06:27.469Z,6.06
2022-11-24T09:08:55.490Z,6.08
2022-11-24T09:11:22.636Z,6.12
2022-11-24T09:13:49.260Z,6.15
2022-11-24T09:16:18.264Z,6.17
2022-11-24T09:18:45.727Z,6.22
2022-11-24T09:21:18.397Z,6.24
2022-11-24T09:23:47.364Z,6.27
2022-11-24T09:26:19.687Z,6.31
2022-11-24T09:28:47.021Z,6.34
2022-11-24T09:31:15.948Z,6.37
2022-11-24T09:33:43.610Z,6.40
2022-11-24T09:36:10.566Z,6.44
2022-11-24T09:38:37.268Z,6.45
2022-11-24T09:41:22.562Z,6.48
2022-11-24T09:43:51.949Z,6.52
2022-11-24T09:46:30.473Z,6.55
2022-11-24T09:48:58.551Z,6.59
2022-11-24T09:51:31.259Z,6.62
2022-11-24T09:54:12.368Z,6.66
2022-11-24T09:56:41.779Z,6.68
2022-11-24T09:59:21.624Z,6.72
2022-11-24T10:01:50.189Z,6.77
2022-11-24T10:04:21.133Z,6.81
2022-11-24T10:06:55.889Z,6.88
2022-11-24T10:09:31.686Z,6.91
2022-11-24T10:12:23.593Z,6.95
2022-11-24T10:15:09.009Z,7.02
2022-11-24T10:17:54.421Z,7.06
2022-11-24T10:20:53.057Z,7.12
2022-11-24T10:23:39.805Z,7.16
2022-11-24T10:26:40.673Z,7.21
2022-11-24T10:29:20.362Z,7.26
2022-11-24T10:31:50.657Z,7.31
2022-11-24T10:34:21.095Z,7.34
2022-11-24T10:37:09.096Z,7.40
2022-11-24T10:39:59.640Z,7.46
2022-11-24T10:42:28.411Z,7.52
2022-11-24T10:45:12.157Z,7.58
2022-11-24T10:47:39.611Z,7.64
2022-11-24T10:50:06.273Z,7.70
2022-11-24T10:52:41.097Z,7.76
2022-11-24T10:55:07.813Z,7.81
2022-11-24T10:57:36.960Z,7.86
2022-11-24T11:00:23.544Z,7.93
2022-11-24T11:02:51.631Z,7.96
2022-11-24T11:05:31.602Z,7.98
2022-11-24T11:08:21.900Z,8.04
2022-11-24T11:10:51.633Z,8.06
2022-11-24T11:13:25.493Z,8.13
2022-11-24T11:15:52.648Z,8.20
2022-11-24T11:18:21.094Z,8.24
2022-11-24T11:20:53.081Z,8.29
2022-11-24T11:23:25.629Z,8.34
2022-11-24T11:26:18.899Z,8.39
2022-11-24T11:31:15.626Z,8.44
2022-11-24T11:35:02.846Z,8.54
2022-11-24T11:37:32.907Z,8.57
2022-11-24T11:40:00.504Z,8.60
2022-11-24T11:45:28.448Z,8.66
2022-11-24T11:48:01.088Z,8.69
2022-11-24T11:51:21.329Z,8.74
2022-11-24T11:53:48.403Z,8.78
2022-11-24T11:56:29.418Z,8.81
2022-11-24T11:59:30.896Z,8.86
2022-11-24T12:02:32.710Z,8.92
2022-11-24T12:05:11.566Z,8.94
2022-11-24T12:08:06.365Z,9.01
2022-11-24T12:10:35.985Z,9.07
2022-11-24T12:13:30.268Z,9.09
2022-11-24T12:16:04.026Z,9.10
2022-11-24T12:18:56.355Z,9.15
2022-11-24T12:21:32.732Z,9.18
2022-11-24T12:23:59.235Z,9.19
2022-11-24T12:26:40.987Z,9.23
2022-11-24T12:29:44.822Z,9.24
2022-11-24T12:32:19.717Z,9.26
2022-11-24T12:35:10.235Z,9.29
2022-11-24T12:38:06.190Z,9.33
2022-11-24T12:41:18.164Z,9.36
2022-11-24T12:43:51.528Z,9.39
2022-11-24T12:46:28.458Z,9.43
2022-11-24T12:49:16.623Z,9.46
2022-11-24T12:51:47.467Z,9.49
2022-11-24T12:54:17.526Z,9.54
2022-11-24T12:56:53.949Z,9.56
2022-11-24T12:59:39.899Z,9.58
2022-11-24T13:02:31.372Z,9.62
2022-11-24T13:05:20.441Z,9.64
2022-11-24T13:07:50.015Z,9.64
2022-11-24T13:10:55.425Z,9.71
2022-11-24T13:13:16.500Z,9.73
2022-11-24T13:18:54.003Z,9.80
2022-11-24T13:21:42.807Z,9.84
2022-11-24T13:24:19.409Z,9.89
2022-11-24T13:26:52.943Z,9.93
2022-11-24T13:29:28.609Z,9.99
2022-11-24T13:32:15.620Z,10.03
2022-11-24T13:34:49.899Z,10.05
2022-11-24T13:37:28.828Z,10.16
2022-11-24T13:40:14.083Z,10.18
2022-11-24T13:43:07.768Z,10.15
2022-11-24T13:45:54.490Z,10.15
2022-11-24T13:48:21.685Z,10.16
2022-11-24T13:50:51.830Z,10.18
2022-11-24T13:53:44.073Z,10.18
2022-11-24T13:56:13.728Z,10.19
2022-11-24T13:58:44.894Z,10.20
2022-11-24T14:01:24.784Z,10.19
2022-11-24T14:04:33.848Z,10.21
2022-11-24T14:09:53.440Z,10.19
2022-11-24T14:12:22.696Z,10.18
2022-11-24T14:14:55.802Z,10.19
2022-11-24T14:17:23.599Z,10.21
2022-11-24T14:19:52.793Z,10.20
2022-11-24T14:22:26.751Z,10.20
2022-11-24T14:24:58.102Z,10.20
2022-11-24T14:27:37.249Z,10.20
2022-11-24T14:30:09.600Z,10.21
2022-11-24T14:32:37.783Z,10.22
2022-11-24T14:35:23.423Z,10.21
2022-11-24T14:37:50.070Z,10.21
2022-11-24T14:40:42.912Z,10.22
2022-11-24T14:43:19.785Z,10.22
2022-11-24T14:45:55.511Z,10.22
2022-11-24T14:48:28.069Z,10.21
2022-11-24T14:51:11.545Z,10.22
2022-11-24T14:53:42.638Z,10.23
2022-11-24T14:56:09.190Z,10.23
2022-11-24T14:58:41.731Z,10.23
2022-11-24T15:01:37.978Z,10.23
2022-11-24T15:05:02.092Z,10.16
2022-11-24T15:07:27.743Z,10.09
2022-11-24T15:10:00.041Z,10.02
2022-11-24T15:12:28.734Z,9.96
2022-11-24T15:15:00.241Z,9.90
2022-11-24T15:17:29.208Z,9.81
2022-11-24T15:20:02.037Z,9.79
2022-11-24T15:22:43.818Z,9.70
2022-11-24T15:25:33.473Z,9.64
2022-11-24T15:28:01.553Z,9.57
2022-11-24T15:30:28.460Z,9.52
2022-11-24T15:32:57.238Z,9.48
2022-11-24T15:35:30.828Z,9.45
2022-11-24T15:37:57.953Z,9.42
2022-11-24T15:40:25.197Z,9.29
2022-11-24T15:42:54.078Z,9.10
2022-11-24T15:45:22.368Z,9.01
2022-11-24T15:47:48.869Z,9.01
2022-11-24T15:50:15.989Z,8.95
2022-11-24T15:52:43.126Z,8.92
2022-11-24T15:55:36.583Z,8.84
2022-11-24T15:58:03.042Z,8.77
2022-11-24T16:00:29.612Z,8.73
2022-11-24T16:02:56.105Z,8.66
2022-11-24T16:05:22.659Z,8.61
2022-11-24T16:07:49.239Z,8.57
2022-11-24T16:10:26.359Z,8.52
2022-11-24T16:12:53.108Z,8.48
2022-11-24T16:15:20.291Z,8.46
2022-11-24T16:17:46.920Z,8.43
2022-11-24T16:20:13.753Z,8.43
2022-11-24T16:22:40.464Z,8.39
2022-11-24T16:25:07.705Z,8.39
2022-11-24T16:27:34.239Z,8.37
2022-11-24T16:30:01.741Z,8.35
2022-11-24T16:32:28.466Z,8.36
2022-11-24T16:34:54.977Z,8.33
2022-11-24T16:37:21.767Z,8.32
2022-11-24T16:39:50.334Z,8.33
2022-11-24T16:42:17.258Z,8.30
2022-11-24T16:44:43.820Z,8.28
2022-11-24T16:47:12.641Z,8.26
2022-11-24T16:49:39.411Z,8.21
2022-11-24T16:52:05.889Z,8.18
2022-11-24T16:54:32.857Z,8.15
2022-11-24T16:57:00.092Z,8.13
2022-11-24T16:59:26.568Z,8.12
2022-11-24T17:01:53.296Z,8.11
2022-11-24T17:04:19.925Z,8.09
2022-11-24T17:06:46.476Z,8.09
2022-11-24T17:09:12.964Z,8.08
2022-11-24T17:11:39.593Z,8.07
2022-11-24T17:14:06.349Z,8.05
2022-11-24T17:16:33.138Z,8.03
2022-11-24T17:18:59.835Z,8.00
2022-11-24T17:21:27.856Z,7.97
2022-11-24T17:23:56.265Z,7.93
2022-11-24T17:26:23.791Z,7.90
2022-11-24T17:28:50.284Z,7.89
2022-11-24T17:31:25.847Z,7.87
2022-11-24T17:33:55.532Z,7.83
2022-11-24T17:36:22.284Z,7.81
2022-11-24T17:38:52.254Z,7.82
2022-11-24T17:41:19.740Z,7.80
2022-11-24T17:43:50.352Z,7.78
2022-11-24T17:46:17.431Z,7.80
2022-11-24T17:48:44.327Z,7.83
2022-11-24T17:51:13.351Z,7.84
2022-11-24T17:53:42.174Z,7.87
2022-11-24T17:56:12.673Z,7.87
2022-11-24T17:58:42.920Z,7.86
2022-11-24T18:01:11.538Z,7.86
2022-11-24T18:03:42.018Z,7.87
2022-11-24T18:06:13.646Z,7.85
2022-11-24T18:08:42.120Z,7.82
2022-11-24T18:11:12.946Z,7.77
2022-11-24T18:13:56.727Z,7.74
2022-11-24T18:16:28.214Z,7.70
2022-11-24T18:19:07.872Z,7.69
2022-11-24T18:21:35.372Z,7.68
2022-11-24T18:24:01.995Z,7.67
2022-11-24T18:26:28.661Z,7.65
2022-11-24T18:28:55.249Z,7.63
2022-11-24T18:31:22.432Z,7.62
2022-11-24T18:33:49.086Z,7.59
2022-11-24T18:36:19.653Z,7.58
2022-11-24T18:38:46.300Z,7.53
2022-11-24T18:41:14.558Z,7.52
2022-11-24T18:43:41.688Z,7.52
2022-11-24T18:46:14.493Z,7.49
2022-11-24T18:48:41.828Z,7.47
2022-11-24T18:51:14.321Z,7.45
2022-11-24T18:53:42.723Z,7.47
2022-11-24T18:56:13.502Z,7.46
2022-11-24T18:58:40.285Z,7.47
2022-11-24T19:01:14.404Z,7.47
2022-11-24T19:03:48.790Z,7.47
2022-11-24T19:06:37.445Z,7.49
2022-11-24T19:09:12.996Z,7.47
2022-11-24T19:11:43.028Z,7.50
2022-11-24T19:14:12.895Z,7.48
2022-11-24T19:16:40.595Z,7.49
2022-11-24T19:19:08.217Z,7.51
2022-11-24T19:21:37.648Z,7.50
2022-11-24T19:24:06.341Z,7.50
2022-11-24T19:26:35.067Z,7.49
2022-11-24T19:29:02.717Z,7.51
2022-11-24T19:31:29.905Z,7.53
2022-11-24T19:33:58.439Z,7.51
2022-11-24T19:36:26.313Z,7.51
2022-11-24T19:38:57.337Z,7.50
2022-11-24T19:41:29.497Z,7.52
2022-11-24T19:43:57.924Z,7.54
2022-11-24T19:46:27.285Z,7.55
2022-11-24T19:48:56.993Z,7.51
2022-11-24T19:51:26.179Z,7.48
2022-11-24T19:53:53.428Z,7.50
2022-11-24T19:56:22.484Z,7.51
2022-11-24T19:58:50.011Z,7.49
2022-11-24T20:01:19.938Z,7.48
2022-11-24T20:03:49.508Z,7.47
2022-11-24T20:06:16.434Z,7.47
2022-11-24T20:08:43.735Z,7.46
2022-11-24T20:11:16.133Z,7.43
2022-11-24T20:13:44.658Z,7.45
2022-11-24T20:16:17.922Z,7.42
2022-11-24T20:18:46.772Z,7.42
2022-11-24T20:21:19.003Z,7.40
2022-11-24T20:23:51.837Z,7.37
2022-11-24T20:26:21.033Z,7.36
2022-11-24T20:28:47.781Z,7.37
2022-11-24T20:31:17.997Z,7.33
2022-11-24T20:33:45.178Z,7.34
2022-11-24T20:36:29.159Z,7.35
2022-11-24T20:38:56.374Z,7.33
2022-11-24T20:41:32.000Z,7.32
2022-11-24T20:44:00.086Z,7.32
2022-11-24T20:46:30.709Z,7.32
2022-11-24T20:48:57.606Z,7.33
2022-11-24T20:51:29.757Z,7.30
2022-11-24T20:53:58.960Z,7.31
2022-11-24T20:56:32.680Z,7.32
2022-11-24T20:59:00.201Z,7.34
2022-11-24T21:01:35.237Z,7.34
2022-11-24T21:04:02.935Z,7.35
2022-11-24T21:06:29.767Z,7.36
2022-11-24T21:09:01.969Z,7.37
2022-11-24T21:11:30.360Z,7.38
2022-11-24T21:13:57.219Z,7.36
2022-11-24T21:16:26.459Z,7.36
2022-11-24T21:18:57.877Z,7.33
2022-11-24T21:21:26.173Z,7.34
2022-11-24T21:23:52.741Z,7.32
2022-11-24T21:26:19.755Z,7.30
2022-11-24T21:28:47.518Z,7.27
2022-11-24T21:31:17.673Z,7.28
2022-11-24T21:33:49.228Z,7.28
2022-11-24T21:36:22.021Z,7.29
2022-11-24T21:38:53.489Z,7.27
2022-11-24T21:41:21.141Z,7.27
2022-11-24T21:43:47.973Z,7.27
2022-11-24T21:46:14.803Z,7.27
2022-11-24T21:48:42.491Z,7.27
2022-11-24T21:51:13.635Z,7.24
2022-11-24T21:53:41.186Z,7.23
2022-11-24T21:56:12.954Z,7.22
2022-11-24T21:58:48.256Z,7.24
2022-11-24T22:01:17.157Z,7.22
2022-11-24T22:03:44.049Z,7.22
2022-11-24T22:06:10.801Z,7.22
2022-11-24T22:08:38.764Z,7.20
2022-11-24T22:11:13.792Z,7.18
2022-11-24T22:13:41.041Z,7.19
2022-11-24T22:16:10.892Z,7.17
2022-11-24T22:18:40.183Z,7.16
2022-11-24T22:21:10.020Z,7.13
2022-11-24T22:23:36.825Z,7.13
2022-11-24T22:26:11.408Z,7.12
2022-11-24T22:28:38.432Z,7.13
2022-11-24T22:31:10.794Z,7.12
2022-11-24T22:33:37.581Z,7.13
2022-11-24T22:36:04.673Z,7.11
2022-11-24T22:38:32.431Z,7.10
2022-11-24T22:41:04.589Z,7.10
2022-11-24T22:43:32.813Z,7.10
2022-11-24T22:46:11.155Z,7.08
2022-11-24T22:48:38.331Z,7.07
2022-11-24T22:51:07.312Z,7.08
2022-11-24T22:53:34.312Z,7.06
2022-11-24T22:56:05.669Z,7.07
2022-11-24T22:58:33.161Z,7.06
2022-11-24T23:01:07.097Z,7.06
2022-11-24T23:03:35.101Z,7.05
2022-11-24T23:06:03.256Z,7.05
2022-11-24T23:08:30.387Z,7.06
2022-11-24T23:11:01.767Z,7.07
2022-11-24T23:13:28.681Z,7.07
2022-11-24T23:16:07.107Z,7.05
2022-11-24T23:18:33.967Z,7.07
2022-11-24T23:21:14.179Z,7.10
2022-11-24T23:23:41.249Z,7.09
2022-11-24T23:26:10.732Z,7.11
2022-11-24T23:28:37.979Z,7.12
2022-11-24T23:31:10.038Z,7.13
2022-11-24T23:33:37.291Z,7.13
2022-11-24T23:36:12.161Z,7.14
2022-11-24T23:38:39.096Z,7.16
2022-11-24T23:41:10.039Z,7.17
2022-11-24T23:43:38.301Z,7.19
2022-11-24T23:46:07.969Z,7.21
2022-11-24T23:48:35.708Z,7.21
2022-11-24T23:51:13.461Z,7.21
2022-11-24T23:53:40.657Z,7.20
2022-11-24T23:56:08.499Z,7.21
2022-11-24T23:58:35.057Z,7.21
